sensor_id;sensor_type;location;lat;lon;timestamp;temperature;humidity
19206;DHT22;59358;52.134;5.596;2024-03-17T00:00:46;4.50;99.90
19206;DHT22;59358;52.134;5.596;2024-03-17T00:03:13;4.50;99.90
19206;DHT22;59358;52.134;5.596;2024-03-17T00:05:40;4.50;99.90
19206;DHT22;59358;52.134;5.596;2024-03-17T00:08:07;4.50;99.90
19206;DHT22;59358;52.134;5.596;2024-03-17T00:10:34;4.50;99.90
19206;DHT22;59358;52.134;5.596;2024-03-17T00:13:00;4.50;99.90
19206;DHT22;59358;52.134;5.596;2024-03-17T00:15:27;4.60;99.90
19206;DHT22;59358;52.134;5.596;2024-03-17T00:17:53;4.60;99.90
19206;DHT22;59358;52.134;5.596;2024-03-17T00:20:20;4.60;99.90
19206;DHT22;59358;52.134;5.596;2024-03-17T00:22:49;4.60;99.90
19206;DHT22;59358;52.134;5.596;2024-03-17T00:25:17;4.60;99.90
19206;DHT22;59358;52.134;5.596;2024-03-17T00:27:43;4.60;99.90
19206;DHT22;59358;52.134;5.596;2024-03-17T00:30:11;4.60;99.90
19206;DHT22;59358;52.134;5.596;2024-03-17T00:32:38;4.60;99.90
19206;DHT22;59358;52.134;5.596;2024-03-17T00:35:06;4.60;99.90
19206;DHT22;59358;52.134;5.596;2024-03-17T00:37:32;4.60;99.90
19206;DHT22;59358;52.134;5.596;2024-03-17T00:40:01;4.60;99.90
19206;DHT22;59358;52.134;5.596;2024-03-17T00:42:27;4.60;99.90
19206;DHT22;59358;52.134;5.596;2024-03-17T00:44:53;4.60;99.90
19206;DHT22;59358;52.134;5.596;2024-03-17T00:47:20;4.60;99.90
19206;DHT22;59358;52.134;5.596;2024-03-17T00:49:47;4.60;99.90
19206;DHT22;59358;52.134;5.596;2024-03-17T00:52:15;4.60;99.90
19206;DHT22;59358;52.134;5.596;2024-03-17T00:54:42;4.60;99.90
19206;DHT22;59358;52.134;5.596;2024-03-17T00:57:09;4.60;99.90
19206;DHT22;59358;52.134;5.596;2024-03-17T00:59:36;4.60;99.90
19206;DHT22;59358;52.134;5.596;2024-03-17T01:02:02;4.60;99.90
19206;DHT22;59358;52.134;5.596;2024-03-17T01:04:28;4.60;99.90
19206;DHT22;59358;52.134;5.596;2024-03-17T01:06:54;4.60;99.90
19206;DHT22;59358;52.134;5.596;2024-03-17T01:09:21;4.60;99.90
19206;DHT22;59358;52.134;5.596;2024-03-17T01:11:47;4.70;99.90
19206;DHT22;59358;52.134;5.596;2024-03-17T01:14:15;4.70;99.90
19206;DHT22;59358;52.134;5.596;2024-03-17T01:16:41;4.70;99.90
19206;DHT22;59358;52.134;5.596;2024-03-17T01:19:08;4.70;99.90
19206;DHT22;59358;52.134;5.596;2024-03-17T01:21:34;4.70;99.90
19206;DHT22;59358;52.134;5.596;2024-03-17T01:24:00;4.80;99.90
19206;DHT22;59358;52.134;5.596;2024-03-17T01:26:27;4.80;99.90
19206;DHT22;59358;52.134;5.596;2024-03-17T01:28:53;4.80;99.90
19206;DHT22;59358;52.134;5.596;2024-03-17T01:31:20;4.90;99.90
19206;DHT22;59358;52.134;5.596;2024-03-17T01:33:47;4.90;99.90
19206;DHT22;59358;52.134;5.596;2024-03-17T01:36:13;4.90;99.90
19206;DHT22;59358;52.134;5.596;2024-03-17T01:38:40;4.90;99.90
19206;DHT22;59358;52.134;5.596;2024-03-17T01:41:06;4.90;99.90
19206;DHT22;59358;52.134;5.596;2024-03-17T01:43:32;4.90;99.90
19206;DHT22;59358;52.134;5.596;2024-03-17T01:45:58;4.90;99.90
19206;DHT22;59358;52.134;5.596;2024-03-17T01:48:28;4.90;99.90
19206;DHT22;59358;52.134;5.596;2024-03-17T01:50:55;4.90;99.90
19206;DHT22;59358;52.134;5.596;2024-03-17T01:53:23;4.80;99.90
19206;DHT22;59358;52.134;5.596;2024-03-17T01:55:50;4.80;99.90
19206;DHT22;59358;52.134;5.596;2024-03-17T01:58:17;4.80;99.90
19206;DHT22;59358;52.134;5.596;2024-03-17T02:00:46;4.80;99.90
19206;DHT22;59358;52.134;5.596;2024-03-17T02:03:12;4.70;99.90
19206;DHT22;59358;52.134;5.596;2024-03-17T02:05:40;4.70;99.90
19206;DHT22;59358;52.134;5.596;2024-03-17T02:08:07;4.80;99.90
19206;DHT22;59358;52.134;5.596;2024-03-17T02:10:33;4.80;99.90
19206;DHT22;59358;52.134;5.596;2024-03-17T02:13:00;4.80;99.90
19206;DHT22;59358;52.134;5.596;2024-03-17T02:15:26;4.80;99.90
19206;DHT22;59358;52.134;5.596;2024-03-17T02:17:53;4.80;99.90
19206;DHT22;59358;52.134;5.596;2024-03-17T02:20:19;4.80;99.90
19206;DHT22;59358;52.134;5.596;2024-03-17T02:22:51;4.90;99.90
19206;DHT22;59358;52.134;5.596;2024-03-17T02:25:17;4.90;99.90
19206;DHT22;59358;52.134;5.596;2024-03-17T02:27:44;5.00;99.90
19206;DHT22;59358;52.134;5.596;2024-03-17T02:30:10;5.00;99.90
19206;DHT22;59358;52.134;5.596;2024-03-17T02:32:37;5.10;99.90
19206;DHT22;59358;52.134;5.596;2024-03-17T02:35:03;5.10;99.90
19206;DHT22;59358;52.134;5.596;2024-03-17T02:37:31;5.20;99.90
19206;DHT22;59358;52.134;5.596;2024-03-17T02:39:59;5.20;99.90
19206;DHT22;59358;52.134;5.596;2024-03-17T02:42:25;5.30;99.90
19206;DHT22;59358;52.134;5.596;2024-03-17T02:44:51;5.40;99.90
19206;DHT22;59358;52.134;5.596;2024-03-17T02:47:18;5.30;99.90
19206;DHT22;59358;52.134;5.596;2024-03-17T02:49:45;5.40;99.90
19206;DHT22;59358;52.134;5.596;2024-03-17T02:52:15;5.40;99.90
19206;DHT22;59358;52.134;5.596;2024-03-17T02:54:42;5.40;99.90
19206;DHT22;59358;52.134;5.596;2024-03-17T02:57:10;5.50;99.90
19206;DHT22;59358;52.134;5.596;2024-03-17T02:59:37;5.60;99.90
19206;DHT22;59358;52.134;5.596;2024-03-17T03:02:04;5.60;99.90
19206;DHT22;59358;52.134;5.596;2024-03-17T03:04:31;5.60;99.90
19206;DHT22;59358;52.134;5.596;2024-03-17T03:06:58;5.60;99.90
19206;DHT22;59358;52.134;5.596;2024-03-17T03:09:24;5.70;99.90
19206;DHT22;59358;52.134;5.596;2024-03-17T03:11:57;5.70;99.90
19206;DHT22;59358;52.134;5.596;2024-03-17T03:14:25;5.70;99.90
19206;DHT22;59358;52.134;5.596;2024-03-17T03:16:52;5.70;99.90
19206;DHT22;59358;52.134;5.596;2024-03-17T03:19:18;5.80;99.90
19206;DHT22;59358;52.134;5.596;2024-03-17T03:21:44;5.80;99.90
19206;DHT22;59358;52.134;5.596;2024-03-17T03:24:11;5.90;99.90
19206;DHT22;59358;52.134;5.596;2024-03-17T03:26:38;5.90;99.90
19206;DHT22;59358;52.134;5.596;2024-03-17T03:29:05;6.00;99.90
19206;DHT22;59358;52.134;5.596;2024-03-17T03:31:33;6.00;99.90
19206;DHT22;59358;52.134;5.596;2024-03-17T03:34:00;6.10;99.90
19206;DHT22;59358;52.134;5.596;2024-03-17T03:36:28;6.10;99.90
19206;DHT22;59358;52.134;5.596;2024-03-17T03:38:55;6.20;99.90
19206;DHT22;59358;52.134;5.596;2024-03-17T03:41:23;6.20;99.90
19206;DHT22;59358;52.134;5.596;2024-03-17T03:43:50;6.20;99.90
19206;DHT22;59358;52.134;5.596;2024-03-17T03:46:18;6.20;99.90
19206;DHT22;59358;52.134;5.596;2024-03-17T03:48:46;6.30;99.90
19206;DHT22;59358;52.134;5.596;2024-03-17T03:51:13;6.20;99.90
19206;DHT22;59358;52.134;5.596;2024-03-17T03:53:40;6.30;99.90
19206;DHT22;59358;52.134;5.596;2024-03-17T03:56:08;6.30;99.90
19206;DHT22;59358;52.134;5.596;2024-03-17T03:58:36;6.30;99.90
19206;DHT22;59358;52.134;5.596;2024-03-17T04:01:04;6.30;99.90
19206;DHT22;59358;52.134;5.596;2024-03-17T04:03:31;6.40;99.90
19206;DHT22;59358;52.134;5.596;2024-03-17T04:06:03;6.40;99.90
19206;DHT22;59358;52.134;5.596;2024-03-17T04:08:30;6.40;99.90
19206;DHT22;59358;52.134;5.596;2024-03-17T04:10:57;6.40;99.90
19206;DHT22;59358;52.134;5.596;2024-03-17T04:13:24;6.40;99.90
19206;DHT22;59358;52.134;5.596;2024-03-17T04:15:51;6.40;99.90
19206;DHT22;59358;52.134;5.596;2024-03-17T04:18:22;6.50;99.90
19206;DHT22;59358;52.134;5.596;2024-03-17T04:20:50;6.50;99.90
19206;DHT22;59358;52.134;5.596;2024-03-17T04:23:19;6.50;99.90
19206;DHT22;59358;52.134;5.596;2024-03-17T04:25:46;6.50;99.90
19206;DHT22;59358;52.134;5.596;2024-03-17T04:28:13;6.50;99.90
19206;DHT22;59358;52.134;5.596;2024-03-17T04:30:40;6.50;99.90
19206;DHT22;59358;52.134;5.596;2024-03-17T04:33:08;6.50;99.90
19206;DHT22;59358;52.134;5.596;2024-03-17T04:35:35;6.50;99.90
19206;DHT22;59358;52.134;5.596;2024-03-17T04:38:02;6.40;99.90
19206;DHT22;59358;52.134;5.596;2024-03-17T04:40:31;6.50;99.90
19206;DHT22;59358;52.134;5.596;2024-03-17T04:42:57;6.50;99.90
19206;DHT22;59358;52.134;5.596;2024-03-17T04:45:24;6.40;99.90
19206;DHT22;59358;52.134;5.596;2024-03-17T04:47:51;6.40;99.90
19206;DHT22;59358;52.134;5.596;2024-03-17T04:50:18;6.30;99.90
19206;DHT22;59358;52.134;5.596;2024-03-17T04:52:46;6.30;99.90
19206;DHT22;59358;52.134;5.596;2024-03-17T04:55:14;6.20;99.90
19206;DHT22;59358;52.134;5.596;2024-03-17T04:57:43;6.20;99.90
19206;DHT22;59358;52.134;5.596;2024-03-17T05:00:10;6.10;99.90
19206;DHT22;59358;52.134;5.596;2024-03-17T05:02:39;6.10;99.90
19206;DHT22;59358;52.134;5.596;2024-03-17T05:05:06;6.10;99.90
19206;DHT22;59358;52.134;5.596;2024-03-17T05:07:33;6.10;99.90
19206;DHT22;59358;52.134;5.596;2024-03-17T05:10:00;6.00;99.90
19206;DHT22;59358;52.134;5.596;2024-03-17T05:12:27;6.00;99.90
19206;DHT22;59358;52.134;5.596;2024-03-17T05:14:56;6.10;99.90
19206;DHT22;59358;52.134;5.596;2024-03-17T05:17:23;6.10;99.90
19206;DHT22;59358;52.134;5.596;2024-03-17T05:19:49;6.10;99.90
19206;DHT22;59358;52.134;5.596;2024-03-17T05:22:16;6.10;99.90
19206;DHT22;59358;52.134;5.596;2024-03-17T05:24:43;6.20;99.90
19206;DHT22;59358;52.134;5.596;2024-03-17T05:27:10;6.20;99.90
19206;DHT22;59358;52.134;5.596;2024-03-17T05:29:37;6.20;99.90
19206;DHT22;59358;52.134;5.596;2024-03-17T05:32:05;6.20;99.90
19206;DHT22;59358;52.134;5.596;2024-03-17T05:34:32;6.30;99.90
19206;DHT22;59358;52.134;5.596;2024-03-17T05:36:59;6.20;99.90
19206;DHT22;59358;52.134;5.596;2024-03-17T05:39:27;6.30;99.90
19206;DHT22;59358;52.134;5.596;2024-03-17T05:41:54;6.30;99.90
19206;DHT22;59358;52.134;5.596;2024-03-17T05:44:20;6.30;99.90
19206;DHT22;59358;52.134;5.596;2024-03-17T05:46:47;6.30;99.90
19206;DHT22;59358;52.134;5.596;2024-03-17T05:49:15;6.40;99.90
19206;DHT22;59358;52.134;5.596;2024-03-17T05:51:42;6.40;99.90
19206;DHT22;59358;52.134;5.596;2024-03-17T05:54:09;6.40;99.90
19206;DHT22;59358;52.134;5.596;2024-03-17T05:56:37;6.40;99.90
19206;DHT22;59358;52.134;5.596;2024-03-17T05:59:04;6.40;99.90
19206;DHT22;59358;52.134;5.596;2024-03-17T06:01:31;6.40;99.90
19206;DHT22;59358;52.134;5.596;2024-03-17T06:03:58;6.40;99.90
19206;DHT22;59358;52.134;5.596;2024-03-17T06:06:27;6.50;99.90
19206;DHT22;59358;52.134;5.596;2024-03-17T06:08:53;6.50;99.90
19206;DHT22;59358;52.134;5.596;2024-03-17T06:11:20;6.60;99.90
19206;DHT22;59358;52.134;5.596;2024-03-17T06:13:47;6.60;99.90
19206;DHT22;59358;52.134;5.596;2024-03-17T06:16:14;6.70;99.90
19206;DHT22;59358;52.134;5.596;2024-03-17T06:18:41;6.70;99.90
19206;DHT22;59358;52.134;5.596;2024-03-17T06:21:07;6.70;99.90
19206;DHT22;59358;52.134;5.596;2024-03-17T06:23:36;6.80;99.90
19206;DHT22;59358;52.134;5.596;2024-03-17T06:26:03;6.80;99.90
19206;DHT22;59358;52.134;5.596;2024-03-17T06:28:31;6.90;99.90
19206;DHT22;59358;52.134;5.596;2024-03-17T06:30:58;7.00;99.90
19206;DHT22;59358;52.134;5.596;2024-03-17T06:33:27;7.00;99.90
19206;DHT22;59358;52.134;5.596;2024-03-17T06:35:54;7.10;99.90
19206;DHT22;59358;52.134;5.596;2024-03-17T06:38:22;7.20;99.90
19206;DHT22;59358;52.134;5.596;2024-03-17T06:40:51;7.30;99.90
19206;DHT22;59358;52.134;5.596;2024-03-17T06:43:18;7.30;99.90
19206;DHT22;59358;52.134;5.596;2024-03-17T06:45:54;7.40;99.90
19206;DHT22;59358;52.134;5.596;2024-03-17T06:48:22;7.40;99.90
19206;DHT22;59358;52.134;5.596;2024-03-17T06:50:49;7.50;99.90
19206;DHT22;59358;52.134;5.596;2024-03-17T06:53:18;7.50;99.90
19206;DHT22;59358;52.134;5.596;2024-03-17T06:55:53;7.60;99.90
19206;DHT22;59358;52.134;5.596;2024-03-17T06:58:21;7.60;99.90
19206;DHT22;59358;52.134;5.596;2024-03-17T07:00:55;7.70;99.90
19206;DHT22;59358;52.134;5.596;2024-03-17T07:03:24;7.80;99.90
19206;DHT22;59358;52.134;5.596;2024-03-17T07:05:55;7.90;99.90
19206;DHT22;59358;52.134;5.596;2024-03-17T07:08:22;8.10;99.90
19206;DHT22;59358;52.134;5.596;2024-03-17T07:11:00;8.20;99.90
19206;DHT22;59358;52.134;5.596;2024-03-17T07:13:29;8.30;99.90
19206;DHT22;59358;52.134;5.596;2024-03-17T07:15:57;8.50;99.90
19206;DHT22;59358;52.134;5.596;2024-03-17T07:18:25;8.60;99.90
19206;DHT22;59358;52.134;5.596;2024-03-17T07:20:53;8.70;99.90
19206;DHT22;59358;52.134;5.596;2024-03-17T07:23:19;8.80;99.90
19206;DHT22;59358;52.134;5.596;2024-03-17T07:25:53;8.80;99.90
19206;DHT22;59358;52.134;5.596;2024-03-17T07:28:22;8.90;99.90
19206;DHT22;59358;52.134;5.596;2024-03-17T07:30:49;9.00;99.90
19206;DHT22;59358;52.134;5.596;2024-03-17T07:33:16;9.20;99.90
19206;DHT22;59358;52.134;5.596;2024-03-17T07:35:47;9.30;99.90
19206;DHT22;59358;52.134;5.596;2024-03-17T07:38:14;9.50;99.90
19206;DHT22;59358;52.134;5.596;2024-03-17T07:40:42;9.50;99.90
19206;DHT22;59358;52.134;5.596;2024-03-17T07:43:09;9.70;99.90
19206;DHT22;59358;52.134;5.596;2024-03-17T07:45:37;9.80;99.90
19206;DHT22;59358;52.134;5.596;2024-03-17T07:48:04;9.90;99.90
19206;DHT22;59358;52.134;5.596;2024-03-17T07:50:31;10.00;99.90
19206;DHT22;59358;52.134;5.596;2024-03-17T07:53:00;10.10;99.90
19206;DHT22;59358;52.134;5.596;2024-03-17T07:55:28;10.20;99.90
19206;DHT22;59358;52.134;5.596;2024-03-17T07:57:56;10.30;99.90
19206;DHT22;59358;52.134;5.596;2024-03-17T08:00:23;10.50;99.90
19206;DHT22;59358;52.134;5.596;2024-03-17T08:02:51;10.70;99.90
19206;DHT22;59358;52.134;5.596;2024-03-17T08:05:18;10.90;99.90
19206;DHT22;59358;52.134;5.596;2024-03-17T08:07:44;11.20;99.90
19206;DHT22;59358;52.134;5.596;2024-03-17T08:10:11;11.30;99.90
19206;DHT22;59358;52.134;5.596;2024-03-17T08:12:38;11.50;99.90
19206;DHT22;59358;52.134;5.596;2024-03-17T08:15:05;11.80;99.90
19206;DHT22;59358;52.134;5.596;2024-03-17T08:17:32;11.90;99.90
19206;DHT22;59358;52.134;5.596;2024-03-17T08:20:01;11.90;99.90
19206;DHT22;59358;52.134;5.596;2024-03-17T08:22:29;11.80;99.90
19206;DHT22;59358;52.134;5.596;2024-03-17T08:24:55;11.80;99.90
19206;DHT22;59358;52.134;5.596;2024-03-17T08:27:22;11.80;99.90
19206;DHT22;59358;52.134;5.596;2024-03-17T08:29:49;11.80;99.90
19206;DHT22;59358;52.134;5.596;2024-03-17T08:32:16;11.70;99.90
19206;DHT22;59358;52.134;5.596;2024-03-17T08:34:46;11.70;99.90
19206;DHT22;59358;52.134;5.596;2024-03-17T08:37:15;11.80;99.90
19206;DHT22;59358;52.134;5.596;2024-03-17T08:39:41;11.80;99.90
19206;DHT22;59358;52.134;5.596;2024-03-17T08:42:08;11.80;99.90
19206;DHT22;59358;52.134;5.596;2024-03-17T08:44:35;11.80;99.90
19206;DHT22;59358;52.134;5.596;2024-03-17T08:47:02;11.60;99.90
19206;DHT22;59358;52.134;5.596;2024-03-17T08:49:29;11.60;99.90
19206;DHT22;59358;52.134;5.596;2024-03-17T08:51:56;11.50;99.90
19206;DHT22;59358;52.134;5.596;2024-03-17T08:54:24;11.60;99.90
19206;DHT22;59358;52.134;5.596;2024-03-17T08:56:51;11.50;99.90
19206;DHT22;59358;52.134;5.596;2024-03-17T08:59:18;11.50;99.90
19206;DHT22;59358;52.134;5.596;2024-03-17T09:01:44;11.60;99.90
19206;DHT22;59358;52.134;5.596;2024-03-17T09:04:11;11.60;99.90
19206;DHT22;59358;52.134;5.596;2024-03-17T09:06:38;11.80;99.90
19206;DHT22;59358;52.134;5.596;2024-03-17T09:09:06;11.80;99.90
19206;DHT22;59358;52.134;5.596;2024-03-17T09:11:34;11.90;99.90
19206;DHT22;59358;52.134;5.596;2024-03-17T09:14:01;11.90;99.90
19206;DHT22;59358;52.134;5.596;2024-03-17T09:16:28;12.00;99.90
19206;DHT22;59358;52.134;5.596;2024-03-17T09:18:56;12.00;99.90
19206;DHT22;59358;52.134;5.596;2024-03-17T09:21:22;12.20;99.90
19206;DHT22;59358;52.134;5.596;2024-03-17T09:23:49;12.30;99.90
19206;DHT22;59358;52.134;5.596;2024-03-17T09:26:16;12.40;99.90
19206;DHT22;59358;52.134;5.596;2024-03-17T09:28:44;12.40;99.90
19206;DHT22;59358;52.134;5.596;2024-03-17T09:31:11;12.40;99.90
19206;DHT22;59358;52.134;5.596;2024-03-17T09:33:38;12.50;99.90
19206;DHT22;59358;52.134;5.596;2024-03-17T09:36:06;12.50;99.90
19206;DHT22;59358;52.134;5.596;2024-03-17T09:38:34;12.60;99.90
19206;DHT22;59358;52.134;5.596;2024-03-17T09:41:02;12.70;99.90
19206;DHT22;59358;52.134;5.596;2024-03-17T09:43:31;12.70;99.90
19206;DHT22;59358;52.134;5.596;2024-03-17T09:46:02;12.80;99.90
19206;DHT22;59358;52.134;5.596;2024-03-17T09:48:29;12.80;99.90
19206;DHT22;59358;52.134;5.596;2024-03-17T09:50:56;12.90;99.90
19206;DHT22;59358;52.134;5.596;2024-03-17T09:53:25;13.00;99.90
19206;DHT22;59358;52.134;5.596;2024-03-17T09:55:54;13.20;99.90
19206;DHT22;59358;52.134;5.596;2024-03-17T09:58:23;13.10;99.90
19206;DHT22;59358;52.134;5.596;2024-03-17T10:00:50;13.20;99.90
19206;DHT22;59358;52.134;5.596;2024-03-17T10:03:43;13.20;99.90
19206;DHT22;59358;52.134;5.596;2024-03-17T10:06:11;13.20;99.90
19206;DHT22;59358;52.134;5.596;2024-03-17T10:08:42;13.10;99.90
19206;DHT22;59358;52.134;5.596;2024-03-17T10:11:08;13.20;99.90
19206;DHT22;59358;52.134;5.596;2024-03-17T10:13:35;13.50;99.90
19206;DHT22;59358;52.134;5.596;2024-03-17T10:16:02;13.70;99.90
19206;DHT22;59358;52.134;5.596;2024-03-17T10:18:30;13.90;99.90
19206;DHT22;59358;52.134;5.596;2024-03-17T10:20:58;14.10;99.90
19206;DHT22;59358;52.134;5.596;2024-03-17T10:23:27;14.20;99.90
19206;DHT22;59358;52.134;5.596;2024-03-17T10:25:54;14.30;99.90
19206;DHT22;59358;52.134;5.596;2024-03-17T10:28:21;14.40;99.90
19206;DHT22;59358;52.134;5.596;2024-03-17T10:30:57;14.70;99.90
19206;DHT22;59358;52.134;5.596;2024-03-17T10:33:25;14.60;99.90
19206;DHT22;59358;52.134;5.596;2024-03-17T10:35:59;14.70;99.90
19206;DHT22;59358;52.134;5.596;2024-03-17T10:38:27;14.80;99.90
19206;DHT22;59358;52.134;5.596;2024-03-17T10:40:54;15.10;99.90
19206;DHT22;59358;52.134;5.596;2024-03-17T10:43:21;15.20;99.90
19206;DHT22;59358;52.134;5.596;2024-03-17T10:45:52;15.40;99.90
19206;DHT22;59358;52.134;5.596;2024-03-17T10:48:21;15.50;99.90
19206;DHT22;59358;52.134;5.596;2024-03-17T10:50:50;15.60;99.90
19206;DHT22;59358;52.134;5.596;2024-03-17T10:53:20;15.70;99.90
19206;DHT22;59358;52.134;5.596;2024-03-17T10:56:00;15.90;99.90
19206;DHT22;59358;52.134;5.596;2024-03-17T10:58:34;16.00;99.90
19206;DHT22;59358;52.134;5.596;2024-03-17T11:01:02;16.10;99.90
19206;DHT22;59358;52.134;5.596;2024-03-17T11:03:31;16.10;99.90
19206;DHT22;59358;52.134;5.596;2024-03-17T11:05:59;16.10;99.90
19206;DHT22;59358;52.134;5.596;2024-03-17T11:08:31;16.50;99.90
19206;DHT22;59358;52.134;5.596;2024-03-17T11:10:59;16.60;99.90
19206;DHT22;59358;52.134;5.596;2024-03-17T11:13:27;16.50;99.90
19206;DHT22;59358;52.134;5.596;2024-03-17T11:15:54;16.60;99.90
19206;DHT22;59358;52.134;5.596;2024-03-17T11:18:35;16.80;99.90
19206;DHT22;59358;52.134;5.596;2024-03-17T11:21:03;16.80;99.90
19206;DHT22;59358;52.134;5.596;2024-03-17T11:23:37;16.60;99.90
19206;DHT22;59358;52.134;5.596;2024-03-17T11:26:06;16.70;99.90
19206;DHT22;59358;52.134;5.596;2024-03-17T11:28:48;16.70;99.90
19206;DHT22;59358;52.134;5.596;2024-03-17T11:31:37;16.60;99.90
19206;DHT22;59358;52.134;5.596;2024-03-17T11:34:26;16.80;99.90
19206;DHT22;59358;52.134;5.596;2024-03-17T11:36:54;16.90;99.90
19206;DHT22;59358;52.134;5.596;2024-03-17T11:39:31;16.80;99.90
19206;DHT22;59358;52.134;5.596;2024-03-17T11:42:13;16.70;99.90
19206;DHT22;59358;52.134;5.596;2024-03-17T11:44:42;16.80;99.90
19206;DHT22;59358;52.134;5.596;2024-03-17T11:47:10;16.90;99.90
19206;DHT22;59358;52.134;5.596;2024-03-17T11:49:37;16.90;99.90
19206;DHT22;59358;52.134;5.596;2024-03-17T11:52:09;16.80;99.90
19206;DHT22;59358;52.134;5.596;2024-03-17T11:54:39;16.70;99.90
19206;DHT22;59358;52.134;5.596;2024-03-17T11:57:07;16.30;99.90
19206;DHT22;59358;52.134;5.596;2024-03-17T11:59:33;16.10;99.90
19206;DHT22;59358;52.134;5.596;2024-03-17T12:02:00;16.00;99.90
19206;DHT22;59358;52.134;5.596;2024-03-17T12:04:27;15.80;99.90
19206;DHT22;59358;52.134;5.596;2024-03-17T12:06:55;15.60;99.90
19206;DHT22;59358;52.134;5.596;2024-03-17T12:09:22;15.30;99.90
19206;DHT22;59358;52.134;5.596;2024-03-17T12:11:58;15.00;99.90
19206;DHT22;59358;52.134;5.596;2024-03-17T12:14:24;14.70;99.90
19206;DHT22;59358;52.134;5.596;2024-03-17T12:16:53;14.60;99.90
19206;DHT22;59358;52.134;5.596;2024-03-17T12:19:19;14.50;99.90
19206;DHT22;59358;52.134;5.596;2024-03-17T12:21:48;14.40;99.90
19206;DHT22;59358;52.134;5.596;2024-03-17T12:24:17;14.50;99.90
19206;DHT22;59358;52.134;5.596;2024-03-17T12:26:44;14.20;99.90
19206;DHT22;59358;52.134;5.596;2024-03-17T12:29:27;14.00;99.90
19206;DHT22;59358;52.134;5.596;2024-03-17T12:31:56;14.00;99.90
19206;DHT22;59358;52.134;5.596;2024-03-17T12:34:25;13.90;99.90
19206;DHT22;59358;52.134;5.596;2024-03-17T12:36:53;14.00;99.90
19206;DHT22;59358;52.134;5.596;2024-03-17T12:39:21;13.90;99.90
19206;DHT22;59358;52.134;5.596;2024-03-17T12:42:07;13.80;99.90
19206;DHT22;59358;52.134;5.596;2024-03-17T12:44:37;13.90;99.90
19206;DHT22;59358;52.134;5.596;2024-03-17T12:47:05;14.20;99.90
19206;DHT22;59358;52.134;5.596;2024-03-17T12:49:33;14.30;99.90
19206;DHT22;59358;52.134;5.596;2024-03-17T12:52:00;14.40;99.90
19206;DHT22;59358;52.134;5.596;2024-03-17T12:54:28;14.50;99.90
19206;DHT22;59358;52.134;5.596;2024-03-17T12:57:04;14.50;99.90
19206;DHT22;59358;52.134;5.596;2024-03-17T12:59:49;14.50;99.90
19206;DHT22;59358;52.134;5.596;2024-03-17T13:02:33;14.60;99.90
19206;DHT22;59358;52.134;5.596;2024-03-17T13:05:10;14.70;99.90
19206;DHT22;59358;52.134;5.596;2024-03-17T13:07:38;14.60;99.90
19206;DHT22;59358;52.134;5.596;2024-03-17T13:10:05;14.50;99.90
19206;DHT22;59358;52.134;5.596;2024-03-17T13:12:33;14.40;99.90
19206;DHT22;59358;52.134;5.596;2024-03-17T13:15:02;14.50;99.90
19206;DHT22;59358;52.134;5.596;2024-03-17T13:17:30;14.60;99.90
19206;DHT22;59358;52.134;5.596;2024-03-17T13:20:00;14.60;99.90
19206;DHT22;59358;52.134;5.596;2024-03-17T13:22:28;14.80;99.90
19206;DHT22;59358;52.134;5.596;2024-03-17T13:24:54;14.70;99.90
19206;DHT22;59358;52.134;5.596;2024-03-17T13:27:21;14.80;99.90
19206;DHT22;59358;52.134;5.596;2024-03-17T13:29:48;14.80;99.90
19206;DHT22;59358;52.134;5.596;2024-03-17T13:32:16;14.90;99.90
19206;DHT22;59358;52.134;5.596;2024-03-17T13:34:43;14.80;99.90
19206;DHT22;59358;52.134;5.596;2024-03-17T13:37:11;14.80;99.90
19206;DHT22;59358;52.134;5.596;2024-03-17T13:39:38;14.80;99.90
19206;DHT22;59358;52.134;5.596;2024-03-17T13:42:05;14.80;99.90
19206;DHT22;59358;52.134;5.596;2024-03-17T13:44:33;14.70;99.90
19206;DHT22;59358;52.134;5.596;2024-03-17T13:47:00;14.70;99.90
19206;DHT22;59358;52.134;5.596;2024-03-17T13:49:30;14.60;99.90
19206;DHT22;59358;52.134;5.596;2024-03-17T13:51:57;14.30;99.90
19206;DHT22;59358;52.134;5.596;2024-03-17T13:54:24;14.20;99.90
19206;DHT22;59358;52.134;5.596;2024-03-17T13:56:51;14.20;99.90
19206;DHT22;59358;52.134;5.596;2024-03-17T13:59:31;14.20;99.90
19206;DHT22;59358;52.134;5.596;2024-03-17T14:01:58;14.20;99.90
19206;DHT22;59358;52.134;5.596;2024-03-17T14:04:25;14.30;99.90
19206;DHT22;59358;52.134;5.596;2024-03-17T14:06:53;14.20;99.90
19206;DHT22;59358;52.134;5.596;2024-03-17T14:09:20;14.30;99.90
19206;DHT22;59358;52.134;5.596;2024-03-17T14:11:48;14.30;99.90
19206;DHT22;59358;52.134;5.596;2024-03-17T14:14:16;14.40;99.90
19206;DHT22;59358;52.134;5.596;2024-03-17T14:16:43;14.50;99.90
19206;DHT22;59358;52.134;5.596;2024-03-17T14:19:10;14.60;99.90
19206;DHT22;59358;52.134;5.596;2024-03-17T14:21:37;14.50;99.90
19206;DHT22;59358;52.134;5.596;2024-03-17T14:24:05;14.50;99.90
19206;DHT22;59358;52.134;5.596;2024-03-17T14:26:35;14.60;99.90
19206;DHT22;59358;52.134;5.596;2024-03-17T14:29:02;14.70;99.90
19206;DHT22;59358;52.134;5.596;2024-03-17T14:31:32;14.90;99.90
19206;DHT22;59358;52.134;5.596;2024-03-17T14:34:01;15.10;99.90
19206;DHT22;59358;52.134;5.596;2024-03-17T14:36:28;15.20;99.90
19206;DHT22;59358;52.134;5.596;2024-03-17T14:38:56;15.00;99.90
19206;DHT22;59358;52.134;5.596;2024-03-17T14:41:27;15.00;99.90
19206;DHT22;59358;52.134;5.596;2024-03-17T14:43:57;15.10;99.90
19206;DHT22;59358;52.134;5.596;2024-03-17T14:46:25;15.10;99.90
19206;DHT22;59358;52.134;5.596;2024-03-17T14:48:53;15.10;99.90
19206;DHT22;59358;52.134;5.596;2024-03-17T14:51:20;15.20;99.90
19206;DHT22;59358;52.134;5.596;2024-03-17T14:53:51;15.10;99.90
19206;DHT22;59358;52.134;5.596;2024-03-17T14:56:21;15.10;99.90
19206;DHT22;59358;52.134;5.596;2024-03-17T14:58:58;15.20;99.90
19206;DHT22;59358;52.134;5.596;2024-03-17T15:01:25;15.20;99.90
19206;DHT22;59358;52.134;5.596;2024-03-17T15:03:55;15.20;99.90
19206;DHT22;59358;52.134;5.596;2024-03-17T15:06:22;15.40;99.90
19206;DHT22;59358;52.134;5.596;2024-03-17T15:08:50;15.50;99.90
19206;DHT22;59358;52.134;5.596;2024-03-17T15:11:17;15.60;99.90
19206;DHT22;59358;52.134;5.596;2024-03-17T15:13:44;15.70;99.90
19206;DHT22;59358;52.134;5.596;2024-03-17T15:16:12;15.80;99.90
19206;DHT22;59358;52.134;5.596;2024-03-17T15:18:41;15.90;99.90
19206;DHT22;59358;52.134;5.596;2024-03-17T15:21:08;15.70;99.90
19206;DHT22;59358;52.134;5.596;2024-03-17T15:23:35;15.70;99.90
19206;DHT22;59358;52.134;5.596;2024-03-17T15:26:03;15.50;99.90
19206;DHT22;59358;52.134;5.596;2024-03-17T15:28:38;15.30;99.90
19206;DHT22;59358;52.134;5.596;2024-03-17T15:31:07;15.20;99.90
19206;DHT22;59358;52.134;5.596;2024-03-17T15:33:52;15.00;99.90
19206;DHT22;59358;52.134;5.596;2024-03-17T15:39:21;14.70;99.90
19206;DHT22;59358;52.134;5.596;2024-03-17T15:41:49;14.40;99.90
19206;DHT22;59358;52.134;5.596;2024-03-17T15:44:16;14.40;99.90
19206;DHT22;59358;52.134;5.596;2024-03-17T15:46:48;14.40;99.90